Time;durP1;ratioP1;P1;durP2;ratioP2;P2;SDS_P1;SDS_P2;PMS_P1;PMS_P2;Temp;Humidity;BMP_temperature;BMP_pressure;BME280_temperature;BME280_humidity;BME280_pressure;Samples;Min_cycle;Max_cycle;Signal;HPM_P1;HPM_P2
2023/12/06 00:02:25;;;;;;;29.27;13.48;;;3.40;99.90;;;;;;5094470;28;20028;-69
2023/12/06 00:04:51;;;;;;;30.17;13.90;;;3.40;99.90;;;;;;5094355;28;20032;-69
2023/12/06 00:07:17;;;;;;;33.63;13.73;;;3.40;99.90;;;;;;5094281;28;20040;-69
2023/12/06 00:09:42;;;;;;;32.35;14.45;;;3.40;99.90;;;;;;5094460;28;20114;-69
2023/12/06 00:12:08;;;;;;;32.78;13.20;;;3.40;99.90;;;;;;5094315;28;20040;-70
2023/12/06 00:14:33;;;;;;;33.53;14.20;;;3.40;99.90;;;;;;5094236;28;20025;-69
2023/12/06 00:16:59;;;;;;;31.83;14.00;;;3.40;99.90;;;;;;5094304;28;20036;-69
2023/12/06 00:19:24;;;;;;;33.15;13.32;;;3.40;99.90;;;;;;5094139;28;20040;-70
2023/12/06 00:21:50;;;;;;;31.30;14.43;;;3.40;99.90;;;;;;5093953;28;20032;-69
2023/12/06 00:24:16;;;;;;;28.85;12.75;;;3.40;99.90;;;;;;5094117;28;20037;-70
2023/12/06 00:26:43;;;;;;;34.25;14.40;;;3.50;99.90;;;;;;5093975;28;20036;-70
2023/12/06 00:29:08;;;;;;;39.00;14.80;;;3.50;99.90;;;;;;5093688;28;20013;-69
2023/12/06 00:31:34;;;;;;;35.10;15.07;;;3.50;99.90;;;;;;5093895;28;20049;-70
2023/12/06 00:34:00;;;;;;;36.85;13.98;;;3.50;99.90;;;;;;5093913;28;20052;-70
2023/12/06 00:36:25;;;;;;;34.75;14.32;;;3.50;99.90;;;;;;5093803;28;20060;-70
2023/12/06 00:38:52;;;;;;;30.20;13.43;;;3.50;99.90;;;;;;5093890;28;20047;-70
2023/12/06 00:41:17;;;;;;;36.90;13.20;;;3.50;99.90;;;;;;5093794;28;20027;-70
2023/12/06 00:43:43;;;;;;;32.97;13.55;;;3.50;99.90;;;;;;5093625;28;20032;-70
2023/12/06 00:46:09;;;;;;;38.17;15.10;;;3.60;99.90;;;;;;5093178;28;20081;-70
2023/12/06 00:48:35;;;;;;;34.78;14.48;;;3.50;99.90;;;;;;5093408;28;20020;-70
2023/12/06 00:51:01;;;;;;;29.63;13.85;;;3.60;99.90;;;;;;5093527;28;20029;-70
2023/12/06 00:53:28;;;;;;;37.95;15.65;;;3.60;99.90;;;;;;5093518;28;20036;-69
2023/12/06 00:55:54;;;;;;;31.90;13.32;;;3.60;99.90;;;;;;5093496;28;20494;-69
2023/12/06 00:58:20;;;;;;;36.67;14.10;;;3.60;99.90;;;;;;5093304;28;20024;-70
2023/12/06 01:00:46;;;;;;;33.58;13.82;;;3.60;99.90;;;;;;5092114;28;20084;-70
2023/12/06 01:03:12;;;;;;;34.78;14.52;;;3.60;99.90;;;;;;5093285;28;20099;-70
2023/12/06 01:05:37;;;;;;;29.95;13.27;;;3.60;99.90;;;;;;5093172;28;20037;-70
2023/12/06 01:08:03;;;;;;;35.60;15.30;;;3.60;99.90;;;;;;5093063;28;20056;-70
2023/12/06 01:10:29;;;;;;;31.10;13.40;;;3.60;99.90;;;;;;5093197;28;20089;-70
2023/12/06 01:12:55;;;;;;;35.15;14.30;;;3.60;99.90;;;;;;5093055;28;20076;-70
2023/12/06 01:15:21;;;;;;;33.17;14.43;;;3.70;99.90;;;;;;5093115;28;20093;-69
2023/12/06 01:17:46;;;;;;;36.30;13.70;;;3.70;99.90;;;;;;5093007;28;20060;-69
2023/12/06 01:20:12;;;;;;;38.15;14.90;;;3.60;99.90;;;;;;5092989;28;20025;-70
2023/12/06 01:22:37;;;;;;;34.05;13.98;;;3.70;99.90;;;;;;5092884;28;20028;-70
2023/12/06 01:25:03;;;;;;;32.30;14.30;;;3.70;99.90;;;;;;5092890;28;20056;-69
2023/12/06 01:27:29;;;;;;;34.10;13.68;;;3.70;99.90;;;;;;5092703;28;20024;-69
2023/12/06 01:29:55;;;;;;;29.58;14.27;;;3.70;99.90;;;;;;5092654;28;20066;-70
2023/12/06 01:32:21;;;;;;;32.95;13.30;;;3.70;99.90;;;;;;5092838;28;20020;-70
2023/12/06 01:34:47;;;;;;;35.95;14.95;;;3.70;99.90;;;;;;5092676;28;20039;-70
2023/12/06 01:37:12;;;;;;;33.42;14.60;;;3.70;99.90;;;;;;5092813;28;20028;-70
2023/12/06 01:39:38;;;;;;;36.88;14.18;;;3.80;99.90;;;;;;5092715;28;20039;-70
2023/12/06 01:42:03;;;;;;;36.10;13.38;;;3.80;99.90;;;;;;5092578;28;20088;-69
2023/12/06 01:44:29;;;;;;;36.83;15.13;;;3.80;99.90;;;;;;5091657;28;20039;-70
2023/12/06 01:46:55;;;;;;;40.78;15.65;;;3.80;99.90;;;;;;5092476;28;20064;-70
2023/12/06 01:49:21;;;;;;;35.53;14.15;;;3.80;99.90;;;;;;5092553;28;20052;-70
2023/12/06 01:51:47;;;;;;;32.75;13.88;;;3.80;99.90;;;;;;5092479;28;20032;-70
2023/12/06 01:54:12;;;;;;;34.85;14.52;;;3.80;99.90;;;;;;5092533;28;20111;-70
2023/12/06 01:56:39;;;;;;;31.75;13.43;;;3.80;99.90;;;;;;5092366;28;20036;-69
2023/12/06 01:59:07;;;;;;;33.60;14.23;;;3.80;99.90;;;;;;5091383;28;20111;-70
2023/12/06 02:01:34;;;;;;;33.83;14.15;;;3.80;99.90;;;;;;5092482;28;20046;-69
2023/12/06 02:04:00;;;;;;;35.47;13.75;;;3.80;99.90;;;;;;5092408;28;20058;-69
2023/12/06 02:06:25;;;;;;;34.20;13.77;;;3.80;99.90;;;;;;5092442;28;20033;-69
2023/12/06 02:08:52;;;;;;;36.08;14.52;;;3.80;99.90;;;;;;5092325;28;20115;-69
2023/12/06 02:11:18;;;;;;;35.75;15.13;;;3.80;99.90;;;;;;5092288;28;20027;-69
2023/12/06 02:13:44;;;;;;;39.17;15.00;;;3.80;99.90;;;;;;5092392;28;20033;-69
2023/12/06 02:16:10;;;;;;;41.83;15.48;;;3.80;99.90;;;;;;5092422;28;20033;-70
2023/12/06 02:18:36;;;;;;;43.88;15.48;;;3.80;99.90;;;;;;5092342;28;20032;-69
2023/12/06 02:21:03;;;;;;;38.17;14.90;;;3.80;99.90;;;;;;5092276;28;20028;-69
2023/12/06 02:23:36;;;;;;;35.70;14.68;;;3.80;99.90;;;;;;5092198;28;20112;-69
2023/12/06 02:26:02;;;;;;;38.80;15.93;;;3.90;99.90;;;;;;5092160;28;20029;-69
2023/12/06 02:28:28;;;;;;;37.67;14.55;;;3.80;99.90;;;;;;5092127;28;20021;-70
2023/12/06 02:30:54;;;;;;;39.38;14.70;;;3.80;99.90;;;;;;5091887;28;20064;-70
2023/12/06 02:33:22;;;;;;;38.00;14.32;;;3.80;99.90;;;;;;5092181;28;20031;-69
2023/12/06 02:35:51;;;;;;;34.42;13.82;;;3.80;99.90;;;;;;5092089;28;20025;-70
2023/12/06 02:38:19;;;;;;;38.75;14.57;;;3.80;99.90;;;;;;5091989;28;20028;-70
2023/12/06 02:40:47;;;;;;;41.13;16.40;;;3.80;99.90;;;;;;5092151;28;20017;-70
2023/12/06 02:43:14;;;;;;;38.13;15.10;;;3.80;99.90;;;;;;5091919;28;20036;-69
2023/12/06 02:45:41;;;;;;;38.88;15.32;;;3.80;99.90;;;;;;5092068;28;20032;-70
2023/12/06 02:48:07;;;;;;;33.30;13.73;;;3.80;99.90;;;;;;5091960;28;20032;-70
2023/12/06 02:50:33;;;;;;;36.78;15.60;;;3.80;99.90;;;;;;5092046;28;20063;-70
2023/12/06 02:52:59;;;;;;;40.38;15.98;;;3.80;99.90;;;;;;5091864;28;20124;-70
2023/12/06 02:55:24;;;;;;;37.88;15.10;;;3.80;99.90;;;;;;5091900;28;20020;-70
2023/12/06 02:57:50;;;;;;;40.40;15.70;;;3.80;99.90;;;;;;5091831;28;20043;-70
2023/12/06 03:00:16;;;;;;;34.15;14.93;;;3.80;99.90;;;;;;5091595;28;20029;-70
2023/12/06 03:02:41;;;;;;;34.88;15.15;;;3.80;99.90;;;;;;5091823;28;20028;-70
2023/12/06 03:05:07;;;;;;;36.40;15.30;;;3.80;99.90;;;;;;5091694;28;20056;-70
2023/12/06 03:07:33;;;;;;;34.47;13.82;;;3.80;99.90;;;;;;5091602;28;20021;-69
2023/12/06 03:09:59;;;;;;;36.42;14.70;;;3.90;99.90;;;;;;5092842;28;20047;-69
2023/12/06 03:12:24;;;;;;;37.15;14.18;;;3.90;99.90;;;;;;5095523;28;20479;-69
2023/12/06 03:14:50;;;;;;;33.45;14.57;;;3.90;99.90;;;;;;5095366;28;20025;-70
2023/12/06 03:17:16;;;;;;;34.75;15.23;;;3.90;99.90;;;;;;5095276;28;20033;-69
2023/12/06 03:19:41;;;;;;;36.63;14.23;;;3.90;99.90;;;;;;5095291;28;20051;-69
2023/12/06 03:22:07;;;;;;;35.88;13.52;;;3.90;99.90;;;;;;5095217;28;21078;-70
2023/12/06 03:24:32;;;;;;;33.53;14.25;;;3.90;99.90;;;;;;5095262;28;20036;-69
2023/12/06 03:26:58;;;;;;;34.97;14.60;;;3.90;99.90;;;;;;5095055;28;20032;-70
2023/12/06 03:29:24;;;;;;;32.13;13.77;;;3.90;99.90;;;;;;5095032;28;20029;-70
2023/12/06 03:31:49;;;;;;;32.90;13.98;;;3.90;99.90;;;;;;5094933;28;20120;-69
2023/12/06 03:34:15;;;;;;;29.65;13.90;;;3.90;99.90;;;;;;5095122;28;20033;-70
2023/12/06 03:36:40;;;;;;;32.95;13.00;;;4.00;99.90;;;;;;5094863;28;20127;-70
2023/12/06 03:39:06;;;;;;;31.13;13.13;;;4.00;99.90;;;;;;5095051;28;20058;-70
2023/12/06 03:41:32;;;;;;;32.47;13.30;;;4.00;99.90;;;;;;5094994;28;20025;-70
2023/12/06 03:43:57;;;;;;;31.23;13.60;;;4.00;99.90;;;;;;5094931;28;20097;-69
2023/12/06 03:46:23;;;;;;;29.33;13.43;;;4.00;99.90;;;;;;5094896;28;20032;-70
2023/12/06 03:48:48;;;;;;;29.60;13.10;;;4.00;99.90;;;;;;5094665;28;20040;-70
2023/12/06 03:51:14;;;;;;;32.00;13.75;;;4.00;99.90;;;;;;5094721;28;20028;-70
2023/12/06 03:53:40;;;;;;;33.72;14.63;;;4.00;99.90;;;;;;5094694;28;20051;-69
2023/12/06 03:56:06;;;;;;;27.35;13.05;;;4.00;99.90;;;;;;5094691;28;20112;-70
2023/12/06 03:58:32;;;;;;;30.58;14.25;;;4.00;99.90;;;;;;5094607;28;20033;-69
2023/12/06 04:00:57;;;;;;;36.70;14.25;;;4.00;99.90;;;;;;5094396;28;20051;-70
2023/12/06 04:03:23;;;;;;;34.63;13.85;;;4.00;99.90;;;;;;5094493;28;20032;-69
2023/12/06 04:05:48;;;;;;;28.98;13.00;;;4.00;99.90;;;;;;5094351;28;20039;-69
2023/12/06 04:08:14;;;;;;;30.33;13.63;;;4.00;99.90;;;;;;5094336;28;20032;-70
2023/12/06 04:10:40;;;;;;;29.00;13.25;;;4.00;99.90;;;;;;5094372;28;20107;-70
2023/12/06 04:13:05;;;;;;;31.67;13.45;;;4.00;99.90;;;;;;5094342;28;20029;-70
2023/12/06 04:15:31;;;;;;;29.55;13.15;;;4.00;99.90;;;;;;5094360;28;20020;-70
2023/12/06 04:17:57;;;;;;;28.17;13.13;;;4.10;99.90;;;;;;5094290;28;20028;-69
2023/12/06 04:20:23;;;;;;;26.77;12.25;;;4.10;99.90;;;;;;5094213;28;20088;-70
2023/12/06 04:22:49;;;;;;;29.08;13.35;;;4.10;99.90;;;;;;5093156;28;20031;-70
2023/12/06 04:25:15;;;;;;;29.48;13.45;;;4.10;99.90;;;;;;5094103;28;20029;-70
2023/12/06 04:27:41;;;;;;;27.77;13.95;;;4.10;99.90;;;;;;5093981;28;20049;-70
2023/12/06 04:30:07;;;;;;;27.92;12.25;;;4.10;99.90;;;;;;5093725;28;20056;-69
2023/12/06 04:32:32;;;;;;;31.90;13.48;;;4.10;99.90;;;;;;5093942;28;20021;-70
2023/12/06 04:34:58;;;;;;;25.83;12.93;;;4.20;99.90;;;;;;5093760;28;20042;-69
2023/12/06 04:37:24;;;;;;;39.53;14.10;;;4.10;99.90;;;;;;5093858;28;20021;-69
2023/12/06 04:39:49;;;;;;;30.92;13.93;;;4.20;99.90;;;;;;5092891;28;20035;-69
2023/12/06 04:42:15;;;;;;;26.77;12.73;;;4.20;99.90;;;;;;5093732;28;20028;-70
2023/12/06 04:44:41;;;;;;;29.95;13.18;;;4.20;99.90;;;;;;5093733;28;20032;-70
2023/12/06 04:47:07;;;;;;;28.52;13.18;;;4.20;99.90;;;;;;5093548;28;20032;-70
2023/12/06 04:49:33;;;;;;;26.00;12.85;;;4.20;99.90;;;;;;5093568;28;20025;-70
2023/12/06 04:51:59;;;;;;;23.20;11.50;;;4.30;99.90;;;;;;5093645;28;20020;-70
2023/12/06 04:54:25;;;;;;;29.15;14.00;;;4.30;99.90;;;;;;5093558;28;20025;-70
2023/12/06 04:56:51;;;;;;;29.55;12.25;;;4.30;99.90;;;;;;5093452;28;20088;-70
2023/12/06 04:59:17;;;;;;;28.35;13.35;;;4.30;99.90;;;;;;5093205;28;20054;-70
2023/12/06 05:01:46;;;;;;;26.70;12.50;;;4.30;99.90;;;;;;5093301;28;20029;-70
2023/12/06 05:04:11;;;;;;;25.75;13.05;;;4.30;99.90;;;;;;5093269;28;20017;-69
2023/12/06 05:06:37;;;;;;;26.35;12.55;;;4.30;99.90;;;;;;5093326;28;20039;-69
2023/12/06 05:09:10;;;;;;;23.13;12.23;;;4.30;99.90;;;;;;5092292;28;20036;-70
2023/12/06 05:11:36;;;;;;;25.88;11.68;;;4.30;99.90;;;;;;5093240;28;20089;-70
2023/12/06 05:14:02;;;;;;;25.40;11.75;;;4.30;99.90;;;;;;5092252;28;20017;-70
2023/12/06 05:16:28;;;;;;;24.80;11.73;;;4.30;99.90;;;;;;5093121;28;20050;-69
2023/12/06 05:18:54;;;;;;;26.08;12.23;;;4.30;99.90;;;;;;5093035;28;20032;-70
2023/12/06 05:21:19;;;;;;;27.08;12.60;;;4.40;99.90;;;;;;5092927;28;20471;-70
2023/12/06 05:23:45;;;;;;;24.58;11.73;;;4.40;99.90;;;;;;5092970;28;20025;-70
2023/12/06 05:26:10;;;;;;;24.30;11.77;;;4.40;99.90;;;;;;5092957;28;20032;-69
2023/12/06 05:28:36;;;;;;;23.92;12.20;;;4.40;99.90;;;;;;5092838;28;20033;-70
2023/12/06 05:31:02;;;;;;;24.08;10.65;;;4.40;99.90;;;;;;5092445;28;20048;-69
2023/12/06 05:33:28;;;;;;;25.35;12.38;;;4.40;99.90;;;;;;5092421;28;20040;-70
2023/12/06 05:35:55;;;;;;;25.73;11.82;;;4.50;99.90;;;;;;5092829;28;20088;-70
2023/12/06 05:38:21;;;;;;;23.33;11.63;;;4.40;99.90;;;;;;5092837;28;20054;-69
2023/12/06 05:40:47;;;;;;;21.80;11.45;;;4.50;99.90;;;;;;5092727;28;20039;-70
2023/12/06 05:43:13;;;;;;;23.65;11.57;;;4.50;99.90;;;;;;5092651;28;20025;-70
2023/12/06 05:45:39;;;;;;;24.25;11.07;;;4.50;99.90;;;;;;5092727;28;20032;-70
2023/12/06 05:48:04;;;;;;;24.08;11.27;;;4.50;99.90;;;;;;5092585;28;20032;-70
2023/12/06 05:50:30;;;;;;;24.50;11.27;;;4.50;99.90;;;;;;5092624;28;20032;-70
2023/12/06 05:52:57;;;;;;;22.15;11.07;;;4.50;99.90;;;;;;5092634;28;20044;-70
2023/12/06 05:55:23;;;;;;;20.80;10.52;;;4.50;99.90;;;;;;5092538;28;20035;-70
2023/12/06 05:57:48;;;;;;;22.95;10.80;;;4.50;99.90;;;;;;5092456;28;20032;-69
2023/12/06 06:00:15;;;;;;;24.02;11.35;;;4.50;99.90;;;;;;5092281;28;20028;-70
2023/12/06 06:02:43;;;;;;;23.13;11.18;;;4.60;99.90;;;;;;5092336;28;20036;-69
2023/12/06 06:05:09;;;;;;;20.58;10.40;;;4.60;99.90;;;;;;5092456;28;20211;-70
2023/12/06 06:07:35;;;;;;;21.27;10.35;;;4.60;99.90;;;;;;5092484;28;20017;-70
2023/12/06 06:10:00;;;;;;;25.65;11.07;;;4.60;99.90;;;;;;5092472;28;20107;-70
2023/12/06 06:12:26;;;;;;;21.00;11.25;;;4.60;99.90;;;;;;5092386;28;20024;-69
2023/12/06 06:14:51;;;;;;;22.40;9.95;;;4.60;99.90;;;;;;5092346;28;20025;-69
2023/12/06 06:17:17;;;;;;;21.75;10.00;;;4.70;99.90;;;;;;5092203;28;20071;-69
2023/12/06 06:19:43;;;;;;;24.20;10.13;;;4.70;99.90;;;;;;5092254;28;20028;-70
2023/12/06 06:22:08;;;;;;;21.00;10.85;;;4.70;99.90;;;;;;5092315;28;20036;-69
2023/12/06 06:24:34;;;;;;;20.42;11.05;;;4.70;99.90;;;;;;5091204;28;20032;-69
2023/12/06 06:27:02;;;;;;;19.85;9.93;;;4.70;99.90;;;;;;5092036;28;20041;-69
2023/12/06 06:29:27;;;;;;;24.70;12.38;;;4.70;99.90;;;;;;5091936;28;20037;-69
2023/12/06 06:31:53;;;;;;;23.17;11.05;;;4.70;99.90;;;;;;5092040;28;20056;-70
2023/12/06 06:34:19;;;;;;;20.05;10.68;;;4.80;99.90;;;;;;5092213;28;20032;-70
2023/12/06 06:36:45;;;;;;;20.40;10.48;;;4.70;99.90;;;;;;5092126;28;20487;-70
2023/12/06 06:39:12;;;;;;;22.13;11.00;;;4.80;99.90;;;;;;5101646;28;20036;-70
2023/12/06 06:41:38;;;;;;;18.17;9.85;;;4.70;99.90;;;;;;5112477;28;20031;-70
2023/12/06 06:44:04;;;;;;;18.20;10.43;;;4.70;99.90;;;;;;5111824;28;20096;-70
2023/12/06 06:46:30;;;;;;;25.45;13.35;;;4.80;99.90;;;;;;5113369;28;20043;-70
2023/12/06 06:48:56;;;;;;;21.27;10.45;;;4.80;99.90;;;;;;5114646;28;20028;-70
2023/12/06 06:51:35;;;;;;;22.27;10.70;;;4.80;99.90;;;;;;5115697;28;20481;-70
2023/12/06 06:54:02;;;;;;;23.83;10.50;;;4.80;99.90;;;;;;5116002;28;20020;-70
2023/12/06 06:56:28;;;;;;;21.45;10.07;;;4.80;99.90;;;;;;5116156;28;20020;-70
2023/12/06 06:58:55;;;;;;;19.88;10.35;;;4.80;99.90;;;;;;5115847;28;20027;-70
2023/12/06 07:01:21;;;;;;;22.15;10.25;;;4.80;99.90;;;;;;5116020;28;20032;-70
2023/12/06 07:03:46;;;;;;;20.95;9.70;;;4.90;99.90;;;;;;5114386;28;20081;-69
2023/12/06 07:06:12;;;;;;;22.92;10.25;;;4.90;99.90;;;;;;5115702;28;20029;-70
2023/12/06 07:08:39;;;;;;;22.88;10.55;;;4.90;99.90;;;;;;5115449;28;20153;-70
2023/12/06 07:11:06;;;;;;;23.98;9.93;;;4.90;99.90;;;;;;5115620;28;20024;-70
2023/12/06 07:13:32;;;;;;;27.33;10.30;;;4.90;99.90;;;;;;5115454;28;20020;-70
2023/12/06 07:15:58;;;;;;;19.77;9.38;;;4.90;99.90;;;;;;5115559;28;20096;-70
2023/12/06 07:18:27;;;;;;;23.52;9.95;;;4.90;99.90;;;;;;5115400;28;20036;-71
2023/12/06 07:20:53;;;;;;;24.92;10.75;;;5.00;99.90;;;;;;5115147;28;20032;-71
2023/12/06 07:23:18;;;;;;;24.70;10.65;;;5.00;99.90;;;;;;5115264;28;20036;-70
2023/12/06 07:25:45;;;;;;;22.08;9.85;;;5.00;99.90;;;;;;5115240;28;20025;-70
2023/12/06 07:28:11;;;;;;;21.35;9.98;;;5.00;99.90;;;;;;5115143;28;20025;-70
2023/12/06 07:30:36;;;;;;;20.55;10.05;;;5.00;99.90;;;;;;5114799;28;20044;-70
2023/12/06 07:33:02;;;;;;;23.00;10.48;;;5.00;99.90;;;;;;5114782;28;20055;-70
2023/12/06 07:35:28;;;;;;;19.95;9.85;;;5.10;99.90;;;;;;5115140;28;20036;-71
2023/12/06 07:37:53;;;;;;;18.73;9.15;;;5.10;99.90;;;;;;5114250;28;20066;-71
2023/12/06 07:40:20;;;;;;;23.85;9.63;;;5.10;99.90;;;;;;5097136;28;20131;-71
2023/12/06 07:42:47;;;;;;;22.00;10.48;;;5.10;99.90;;;;;;5115286;28;20432;-72
2023/12/06 07:45:13;;;;;;;20.30;9.82;;;5.10;99.90;;;;;;5115284;28;20028;-71
2023/12/06 07:47:39;;;;;;;23.02;10.45;;;5.10;99.90;;;;;;5115091;28;20063;-71
2023/12/06 07:50:07;;;;;;;22.55;10.57;;;5.20;99.90;;;;;;5115305;28;20025;-71
2023/12/06 07:52:33;;;;;;;24.95;10.98;;;5.20;99.90;;;;;;5114189;28;20023;-72
2023/12/06 07:55:06;;;;;;;20.25;10.52;;;5.20;99.90;;;;;;5115106;28;20016;-70
2023/12/06 07:57:32;;;;;;;20.58;9.23;;;5.20;99.90;;;;;;5115023;28;20027;-71
2023/12/06 07:59:58;;;;;;;23.55;9.27;;;5.20;99.90;;;;;;5114856;28;20035;-72
2023/12/06 08:02:25;;;;;;;20.80;10.18;;;5.20;99.90;;;;;;5114966;28;20088;-74
2023/12/06 08:04:50;;;;;;;22.23;10.35;;;5.20;99.90;;;;;;5114860;28;20032;-72
2023/12/06 08:07:16;;;;;;;19.27;10.02;;;5.20;99.90;;;;;;5114481;28;20110;-72
2023/12/06 08:09:42;;;;;;;19.52;10.55;;;5.20;99.90;;;;;;5114690;28;20055;-72
2023/12/06 08:12:07;;;;;;;23.00;10.65;;;5.20;99.90;;;;;;5106468;28;20063;-72
2023/12/06 08:14:34;;;;;;;20.83;10.38;;;5.20;99.90;;;;;;5094188;28;20028;-72
2023/12/06 08:16:59;;;;;;;18.70;9.55;;;5.30;99.90;;;;;;5091442;28;20020;-70
2023/12/06 08:19:25;;;;;;;20.88;10.25;;;5.20;99.90;;;;;;5092830;28;20035;-72
2023/12/06 08:21:51;;;;;;;19.98;10.27;;;5.30;99.90;;;;;;5093262;28;20029;-71
2023/12/06 08:24:16;;;;;;;19.35;10.13;;;5.30;99.90;;;;;;5093153;28;20031;-71
2023/12/06 08:26:42;;;;;;;20.25;10.68;;;5.30;99.90;;;;;;5093276;28;20490;-71
2023/12/06 08:29:08;;;;;;;24.83;9.80;;;5.30;99.90;;;;;;5093018;28;20039;-71
2023/12/06 08:31:36;;;;;;;21.40;9.70;;;5.30;99.90;;;;;;5101289;28;20036;-72
2023/12/06 08:34:02;;;;;;;21.65;10.25;;;5.40;99.90;;;;;;5113933;28;20071;-71
2023/12/06 08:36:28;;;;;;;19.40;10.02;;;5.40;99.90;;;;;;5111723;28;20028;-71
2023/12/06 08:38:53;;;;;;;23.38;10.52;;;5.40;99.90;;;;;;5112901;28;20120;-71
2023/12/06 08:41:19;;;;;;;19.50;9.90;;;5.40;99.90;;;;;;5113338;28;20113;-71
2023/12/06 08:43:45;;;;;;;18.58;10.05;;;5.40;99.90;;;;;;5113072;28;20020;-71
2023/12/06 08:46:11;;;;;;;20.85;10.57;;;5.40;99.90;;;;;;5113865;28;20026;-71
2023/12/06 08:48:37;;;;;;;29.27;13.20;;;5.50;99.90;;;;;;5113883;28;20512;-71
2023/12/06 08:51:03;;;;;;;20.95;10.63;;;5.50;99.90;;;;;;5114070;28;20019;-71
2023/12/06 08:53:29;;;;;;;20.00;10.68;;;5.50;99.90;;;;;;5113881;28;20017;-71
2023/12/06 08:55:56;;;;;;;18.13;8.98;;;5.50;99.90;;;;;;5113851;28;20024;-71
2023/12/06 08:58:22;;;;;;;18.17;10.10;;;5.50;99.90;;;;;;5113747;28;20028;-71
2023/12/06 09:00:48;;;;;;;18.27;9.13;;;5.50;99.90;;;;;;5113502;28;20024;-71
2023/12/06 09:03:21;;;;;;;23.33;9.77;;;5.50;99.90;;;;;;5113644;28;20108;-72
2023/12/06 09:05:48;;;;;;;21.30;9.93;;;5.60;99.90;;;;;;5112394;28;20036;-72
2023/12/06 09:08:14;;;;;;;26.30;10.32;;;5.60;99.90;;;;;;5113118;28;20032;-72
2023/12/06 09:10:39;;;;;;;19.98;10.45;;;5.60;99.90;;;;;;5113615;28;20027;-72
2023/12/06 09:13:05;;;;;;;20.33;9.80;;;5.60;99.90;;;;;;5113615;28;20084;-72
2023/12/06 09:15:31;;;;;;;21.85;9.65;;;5.70;99.90;;;;;;5113612;28;20036;-71
2023/12/06 09:17:57;;;;;;;25.67;13.60;;;5.70;99.90;;;;;;5113435;28;20028;-72
2023/12/06 09:20:59;;;;;;;28.27;13.00;;;5.80;99.90;;;;;;5113269;28;20017;-71
2023/12/06 09:23:25;;;;;;;18.93;8.60;;;5.80;99.90;;;;;;5108404;28;20413;-68
2023/12/06 09:25:51;;;;;;;18.77;9.23;;;5.80;99.90;;;;;;5113349;28;20270;-68
2023/12/06 09:28:17;;;;;;;22.95;9.07;;;5.90;99.90;;;;;;5113204;28;20032;-69
2023/12/06 09:30:42;;;;;;;21.02;9.80;;;5.90;99.90;;;;;;5094924;28;20131;-72
2023/12/06 09:33:08;;;;;;;18.40;9.55;;;5.90;99.90;;;;;;5112105;28;20115;-72
2023/12/06 09:35:34;;;;;;;21.25;9.20;;;5.90;99.90;;;;;;5112220;28;20031;-71
2023/12/06 09:38:00;;;;;;;20.73;10.00;;;6.00;99.90;;;;;;5113154;28;20057;-71
2023/12/06 09:40:26;;;;;;;18.13;8.85;;;5.90;99.90;;;;;;5112055;28;20088;-70
2023/12/06 09:42:58;;;;;;;18.58;10.07;;;6.00;99.90;;;;;;5112017;28;20039;-69
2023/12/06 09:45:24;;;;;;;18.60;9.63;;;6.00;99.90;;;;;;5113030;28;20026;-69
2023/12/06 09:47:51;;;;;;;22.58;11.95;;;6.10;99.90;;;;;;5112856;28;20016;-69
2023/12/06 09:50:17;;;;;;;20.05;9.77;;;6.10;99.90;;;;;;5111703;28;20028;-70
2023/12/06 09:52:43;;;;;;;20.60;9.88;;;6.00;99.90;;;;;;5112658;28;20030;-69
2023/12/06 09:55:09;;;;;;;18.60;10.07;;;6.00;99.90;;;;;;5112739;28;20074;-69
2023/12/06 09:57:42;;;;;;;21.58;10.00;;;5.90;99.90;;;;;;5112709;28;20431;-69
2023/12/06 10:00:12;;;;;;;22.30;10.13;;;5.80;99.90;;;;;;5112374;28;20032;-68
2023/12/06 10:02:55;;;;;;;24.40;10.90;;;5.80;99.90;;;;;;5112580;28;20020;-69
2023/12/06 10:05:21;;;;;;;;;;;5.80;99.90;;;;;;5113119;28;20054;-67
2023/12/06 10:07:47;;;;;;;20.30;8.85;;;5.80;99.90;;;;;;5112532;28;19915;-68
2023/12/06 10:10:17;;;;;;;22.45;8.60;;;5.80;99.90;;;;;;5112625;28;20106;-68
2023/12/06 10:12:47;;;;;;;19.70;9.27;;;5.80;99.90;;;;;;5112511;28;20042;-68
2023/12/06 10:15:13;;;;;;;19.70;9.70;;;5.80;99.90;;;;;;5112609;28;20036;-68
2023/12/06 10:17:48;;;;;;;21.92;10.43;;;5.90;99.90;;;;;;5112611;28;20028;-68
2023/12/06 10:20:14;;;;;;;21.13;10.05;;;5.90;99.90;;;;;;5114093;28;20031;-68
2023/12/06 10:22:41;;;;;;;22.60;10.55;;;5.90;99.90;;;;;;5116731;28;20036;-68
2023/12/06 10:25:08;;;;;;;17.10;8.77;;;5.90;99.90;;;;;;5116634;28;20521;-68
2023/12/06 10:27:35;;;;;;;21.45;9.65;;;6.00;99.90;;;;;;5116471;28;20020;-68
2023/12/06 10:30:02;;;;;;;21.90;9.23;;;6.00;99.90;;;;;;5115263;28;20052;-68
2023/12/06 10:32:30;;;;;;;23.52;10.15;;;6.00;99.90;;;;;;5116482;28;20039;-68
2023/12/06 10:34:59;;;;;;;17.60;8.50;;;6.10;99.90;;;;;;5116593;28;20035;-69
2023/12/06 10:37:26;;;;;;;22.90;9.05;;;6.10;99.90;;;;;;5116472;28;20051;-68
2023/12/06 10:39:59;;;;;;;19.17;9.20;;;6.20;99.90;;;;;;5116462;28;20028;-68
2023/12/06 10:42:28;;;;;;;;;;;6.20;99.90;;;;;;5116833;28;20028;-69
2023/12/06 10:44:56;;;;;;;17.48;8.52;;;6.30;99.90;;;;;;5115301;28;19955;-69
2023/12/06 10:47:25;;;;;;;31.13;8.95;;;6.30;99.90;;;;;;5116307;28;20103;-68
2023/12/06 10:50:07;;;;;;;19.95;8.85;;;6.40;99.90;;;;;;5116203;28;20020;-69
2023/12/06 10:52:43;;;;;;;17.60;8.57;;;6.50;99.90;;;;;;5116245;28;20016;-69
2023/12/06 10:55:10;;;;;;;17.88;8.68;;;6.50;99.90;;;;;;5116166;28;20032;-69
2023/12/06 10:57:59;;;;;;;16.27;8.65;;;6.50;99.90;;;;;;5115098;28;20024;-69
2023/12/06 11:00:26;;;;;;;17.08;8.43;;;6.60;99.90;;;;;;5115763;28;20020;-69
2023/12/06 11:02:55;;;;;;;17.77;8.30;;;6.70;99.90;;;;;;5116007;28;20103;-68
2023/12/06 11:05:24;;;;;;;17.45;8.30;;;6.80;99.90;;;;;;5115955;28;20054;-68
2023/12/06 11:07:59;;;;;;;14.43;7.60;;;6.80;99.90;;;;;;5115845;28;20095;-68
2023/12/06 11:10:46;;;;;;;16.80;8.20;;;6.90;99.90;;;;;;5115930;28;20024;-69
2023/12/06 11:13:23;;;;;;;19.83;7.93;;;6.80;99.90;;;;;;5115832;28;20051;-69
2023/12/06 11:16:19;;;;;;;15.90;8.00;;;6.80;99.90;;;;;;5115831;28;20013;-69
2023/12/06 11:18:48;;;;;;;21.13;8.77;;;6.80;99.90;;;;;;5115748;28;20402;-68
2023/12/06 11:21:14;;;;;;;20.95;8.80;;;6.80;99.90;;;;;;5115619;28;20024;-68
2023/12/06 11:23:41;;;;;;;17.33;7.88;;;6.80;99.90;;;;;;5115686;28;20058;-68
2023/12/06 11:26:07;;;;;;;16.10;8.27;;;6.90;99.90;;;;;;5115746;28;20039;-68
2023/12/06 11:28:40;;;;;;;18.17;8.23;;;7.00;99.90;;;;;;5115542;28;20028;-68
2023/12/06 11:31:07;;;;;;;16.10;8.30;;;7.00;99.90;;;;;;5115011;28;20067;-68
2023/12/06 11:33:33;;;;;;;14.75;7.40;;;7.10;99.90;;;;;;5115520;28;20035;-69
2023/12/06 11:35:59;;;;;;;14.38;7.70;;;7.10;99.90;;;;;;5114340;28;20058;-68
2023/12/06 11:38:35;;;;;;;17.10;7.20;;;7.20;99.90;;;;;;5115442;28;20016;-69
2023/12/06 11:41:02;;;;;;;17.52;8.65;;;7.20;99.90;;;;;;5115380;28;20028;-69
2023/12/06 11:43:34;;;;;;;16.80;8.32;;;7.20;99.90;;;;;;5115312;28;20029;-69
2023/12/06 11:46:03;;;;;;;;;;;7.20;99.90;;;;;;5115716;28;20040;-69
2023/12/06 11:48:29;;;;;;;16.25;7.18;;;7.10;99.90;;;;;;5115020;28;19915;-69
2023/12/06 11:50:59;;;;;;;15.65;8.50;;;7.00;99.90;;;;;;5115231;28;20076;-69
2023/12/06 11:53:26;;;;;;;16.25;8.10;;;7.00;99.90;;;;;;5115143;28;20027;-69
2023/12/06 11:55:53;;;;;;;14.65;7.13;;;6.90;99.90;;;;;;5114048;28;20088;-69
2023/12/06 11:58:20;;;;;;;21.15;10.70;;;6.90;99.90;;;;;;5115097;28;20027;-69
2023/12/06 12:00:49;;;;;;;16.33;7.47;;;6.90;99.90;;;;;;5114637;28;20054;-69
2023/12/06 12:03:15;;;;;;;16.90;7.95;;;7.00;99.90;;;;;;5109492;28;20024;-69
2023/12/06 12:05:49;;;;;;;18.83;9.25;;;7.00;99.90;;;;;;5094559;28;20029;-69
2023/12/06 12:08:14;;;;;;;21.67;9.63;;;7.20;99.90;;;;;;5094480;28;20016;-69
2023/12/06 12:10:41;;;;;;;24.77;10.38;;;7.40;99.90;;;;;;5094514;28;20071;-69
2023/12/06 12:13:22;;;;;;;42.92;17.38;;;7.50;99.90;;;;;;5094467;28;20017;-69
2023/12/06 12:15:54;;;;;;;24.40;9.07;;;7.60;99.90;;;;;;5094260;28;20028;-69
2023/12/06 12:18:20;;;;;;;46.55;15.77;;;7.70;99.90;;;;;;5094126;28;20084;-69
2023/12/06 12:20:46;;;;;;;15.20;7.35;;;7.80;99.90;;;;;;5094182;28;20025;-69
2023/12/06 12:23:12;;;;;;;12.82;7.07;;;7.80;99.90;;;;;;5094236;28;20040;-69
2023/12/06 12:25:46;;;;;;;15.43;6.70;;;7.80;99.90;;;;;;5094143;28;20054;-69
2023/12/06 12:28:14;;;;;;;16.13;7.07;;;7.80;99.90;;;;;;5093965;28;20023;-69
2023/12/06 12:30:40;;;;;;;16.48;7.13;;;7.80;99.90;;;;;;5093551;28;20040;-69
2023/12/06 12:33:06;;;;;;;12.35;7.20;;;7.80;99.90;;;;;;5093029;28;20028;-69
2023/12/06 12:35:32;;;;;;;14.68;7.25;;;7.80;99.90;;;;;;5093978;28;20057;-69
2023/12/06 12:37:57;;;;;;;17.48;7.13;;;7.80;99.90;;;;;;5093993;28;20028;-69
2023/12/06 12:40:24;;;;;;;17.80;6.80;;;7.80;99.90;;;;;;5094021;28;20105;-69